Historyczne dane pomiarowe

Dodano dane terminowe – wersja testowa.

Dane z okresu 1951-2019

Wersja bazy: 1.34 [2019-03-16, lista zmian], aktualizacja planowana na 2019-04-15

Dane meteo z obszaru Polski uzyskane na podstawie danych udostępnionych przez Instytut Meteorologii i Gospodarki Wodnej – Państwowy Instytut Badawczy.

 

Wybierz Datę:    

       

TemperaturaWilgotnośćWiatrCiśnienieOpadyŚniegCzas trwania zjawisk
 Stacja t tx tn tng RH VA  wxwx mslp ppp RRR   cm mm wxwxwxwxwxwxwx
1977-06-13 10.2 13.4 7.6- 80.1 10.1 3.6 3.6 0.0 0.0- 802.7 6.3 3.8 2.5- 0.0 6.3 1.1----- 0.7
1977-06-14 10.7 16.1 8.6- 76.4 9.8 4.8 3.8 0.7 0.0- 799.0 11.3 11.3 0.0- 0.0 5.4 3.6-- 0.3-- 5.3
1977-06-15 9.7 12.5 7.8- 86.8 10.4 5.6 3.0 0.0 0.0- 796.5 6.5 6.5 0.0- 0.0 5.6 2.8-- 5.7-- 2.6
1977-06-16 9.3 11.8 6.7- 96.9 11.4 6.9 2.9 0.0 0.0- 798.4 4.3 2.6 1.7- 0.0 3.5 2.2-- 18.1-- 4.0
1977-06-17 8.7 10.2 7.6- 99.8 11.2 7.9 5.0 0.0 0.0- 800.5 27.7 26.5 1.2- 0.0 0.4 9.8-- 22.7-- 6.1
1977-06-18 9.6 11.8 7.3- 90.3 10.8 6.9 1.5 0.0 0.0- 801.5 4.4 4.4 0.0- 0.0 0.1 1.8-- 16.3-- 3.7
1977-06-19 8.6 11.7 7.1- 86.9 9.7 4.3 5.9 1.5 0.0- 797.2 2.2 1.9 0.3- 0.0 4.9 1.4-- 2.5-- 2.4
1977-06-20 5.3 7.2 4.1- 96.8 8.6 7.0 6.1 3.8 0.0- 795.0 46.3 1.2 45.1- 0.0 0.7 8.4-- 22.3-- 1.2
1977-06-21 5.5 6.5 4.7-100.0 9.0 8.0 11.4 19.3 0.0- 799.8 0.1 0.1 0.0- 0.0 0.1 6.4-- 24.0---
1977-06-22 4.2 8.1 2.0- 89.8 7.4 5.4 3.5 0.0 0.0- 799.3 0.0 0.0 0.0- 0.0 6.5--- 3.3 8.8--
1977-06-23 4.1 8.1 0.6- 85.6 7.0 4.0 6.1 0.0 0.0- 800.2 0.0 0.0 0.0- 0.0 12.0--- 2.0 7.0--
1977-06-24 6.1 10.3 2.5- 84.0 7.8 3.0 2.0 0.0 0.0- 802.1 0.0 0.0 0.0- 0.0 12.6--- 3.1 0.6--
1977-06-25 8.8 13.2 6.0- 60.5 6.9 2.5 4.0 0.0 0.0- 802.9 0.0 0.0 0.0- 0.0 9.5 0.2------
1977-06-26 7.5 11.3 5.4- 82.4 8.5 5.9 5.0 0.0 0.0- 799.6 8.2 8.2 0.0- 0.0 6.4 2.7-- 1.3-- 5.7
1977-06-27 3.5 7.4 2.2- 98.4 7.8 7.3 9.6 14.9 0.0- 797.6 39.6 39.6 0.0- 0.0 0.0 5.9-- 21.8---
1977-06-28 0.6 3.3 -1.7- 98.1 6.3 6.4 5.5 5.5 0.0- 799.6 0.0 0.0 0.0- 0.0 0.7--- 15.0 2.0 2.0-
1977-06-29 4.5 8.8 0.9- 84.5 7.1 3.6 7.4 6.8 0.0- 800.3 0.0 0.0 0.0- 0.0 9.9---- 3.0 4.5-
1977-06-30 5.5 6.6 4.7- 96.8 8.7 6.3 8.5 7.8 0.0- 801.2 10.7 6.5 4.2- 0.0 1.9 13.3-- 17.5 4.0--
1977-07-01 3.9 6.4 2.2- 98.6 8.0 7.9 5.4 0.0 0.0- 804.4 6.6 6.6 0.0- 0.0 0.0 13.5-- 14.7---
1977-07-02 5.9 10.1 3.0- 82.4 7.7 5.1 5.3 0.0 0.0- 805.2 0.0 0.0 0.0- 0.0 7.1--- 7.8---
1977-07-03 6.9 12.6 2.5- 51.5 5.1 5.0 6.4 0.0 0.0- 803.3 0.0 0.0 0.0- 0.0 12.9--- 2.3---
1977-07-04 4.3 7.4 2.3- 85.8 7.2 7.3 9.3 7.6 0.0- 798.4 8.0 0.0 8.0- 0.0 2.2 2.9-- 6.4---
1977-07-05 4.1 5.4 2.2-100.0 8.2 7.9 8.3 7.3 0.0- 794.0 9.4 9.3 0.1- 0.0 0.2 9.7-- 23.7---
1977-07-06 2.8 5.4 -0.1- 92.5 6.9 5.8 4.8 0.0 0.0- 794.7 3.2 0.0 3.2- 0.0 3.0 0.2-- 6.5---
1977-07-07 5.5 7.5 3.1- 97.3 8.8 6.4 5.8 0.0 0.0- 795.8 3.8 1.8 2.0- 0.0 2.0 8.4-- 10.7---
1977-07-08 6.6 8.3 4.5- 97.6 9.5 6.8 7.9 0.0 0.0- 796.3 5.5 3.6 1.9- 0.0 0.3 7.7-- 19.5-- 0.2
1977-07-09 6.8 8.3 6.1- 97.4 9.6 7.9 4.4 0.0 0.0- 795.1 8.2 5.4 2.8- 0.0 0.1 8.4-- 23.0---
1977-07-10 4.1 6.1 3.5- 99.8 8.2 7.8 5.5 0.0 0.0- 796.8 29.1 2.6 26.5- 0.0 0.1 3.5-- 22.0---
1977-07-11 5.1 6.1 4.2-100.0 8.8 8.0 12.4 20.8 5.0- 797.6 15.5 11.8 3.7- 0.0 0.0 10.8-- 24.0---
1977-07-12 4.4 7.5 -0.7- 78.1 6.6 3.3 10.0 14.5 0.0- 800.9 0.0 0.0 0.0- 0.0 14.2--- 3.3 3.0--
1174.6 ms

 

Źródłem pochodzenia danych jest Instytut Meteorologii i Gospodarki Wodnej – Państwowy Instytut Badawczy. Dane Instytutu Meteorologii i Gospodarki Wodnej – Państwowego Instytutu Badawczego zostały przetworzone.

Dane źródłowe można odnaleźć na stronie https://dane.imgw.pl